createdAt,value
2023-04-16T00:00:00.246Z,86
2023-04-16T00:05:00.375Z,86
2023-04-16T00:10:00.249Z,86
2023-04-16T00:15:00.237Z,86
2023-04-16T00:20:00.237Z,86
2023-04-16T00:25:00.260Z,86
2023-04-16T00:30:00.257Z,86
2023-04-16T00:35:00.220Z,86
2023-04-16T00:40:00.249Z,86
2023-04-16T00:45:00.226Z,86
2023-04-16T00:50:00.286Z,86
2023-04-16T00:55:00.276Z,86
2023-04-16T01:00:00.242Z,86
2023-04-16T01:05:00.244Z,86
2023-04-16T01:10:00.307Z,86
2023-04-16T01:15:00.253Z,86
2023-04-16T01:20:00.350Z,86
2023-04-16T01:25:00.262Z,86
2023-04-16T01:30:00.262Z,86
2023-04-16T01:35:00.264Z,86
2023-04-16T01:40:00.289Z,86
2023-04-16T01:45:00.269Z,86
2023-04-16T01:50:00.295Z,86
2023-04-16T01:55:00.266Z,86
2023-04-16T02:00:00.383Z,86
2023-04-16T02:05:00.251Z,86
2023-04-16T02:10:00.180Z,86
2023-04-16T02:15:00.318Z,87
2023-04-16T02:20:04.194Z,86
2023-04-16T02:25:00.189Z,86
2023-04-16T02:30:01.029Z,86
2023-04-16T02:35:00.320Z,86
2023-04-16T02:40:00.240Z,87
2023-04-16T02:45:00.263Z,87
2023-04-16T02:50:00.236Z,87
2023-04-16T02:55:00.250Z,87
2023-04-16T03:00:00.273Z,87
2023-04-16T03:05:00.250Z,87
2023-04-16T03:10:00.231Z,87
2023-04-16T03:15:00.270Z,87
2023-04-16T03:20:00.304Z,87
2023-04-16T03:25:00.274Z,87
2023-04-16T03:30:00.315Z,87
2023-04-16T03:35:00.290Z,87
2023-04-16T03:40:00.248Z,87
2023-04-16T03:45:00.346Z,87
2023-04-16T03:50:00.276Z,87
2023-04-16T03:55:00.272Z,87
2023-04-16T04:00:00.262Z,87
2023-04-16T04:05:00.364Z,87
2023-04-16T04:10:00.297Z,87
2023-04-16T04:15:00.292Z,87
2023-04-16T04:20:01.678Z,87
2023-04-16T04:25:00.606Z,87
2023-04-16T04:30:00.239Z,87
2023-04-16T04:35:00.255Z,87
2023-04-16T04:40:00.289Z,87
2023-04-16T04:45:00.258Z,87
2023-04-16T04:50:00.253Z,87
2023-04-16T04:55:00.229Z,87
2023-04-16T05:00:00.316Z,87
2023-04-16T05:05:00.413Z,87
2023-04-16T05:10:00.254Z,87
2023-04-16T05:15:00.319Z,87
2023-04-16T05:20:00.295Z,87
2023-04-16T05:25:00.262Z,87
2023-04-16T05:30:00.277Z,86
2023-04-16T05:35:00.279Z,86
2023-04-16T05:40:00.284Z,86
2023-04-16T05:45:00.230Z,86
2023-04-16T05:50:00.287Z,86
2023-04-16T05:55:00.263Z,86
2023-04-16T06:00:00.344Z,85
2023-04-16T06:05:00.362Z,86
2023-04-16T06:10:00.258Z,85
2023-04-16T06:15:00.246Z,85
2023-04-16T06:20:00.306Z,85
2023-04-16T06:25:00.264Z,85
2023-04-16T06:30:00.303Z,85
2023-04-16T06:35:00.276Z,85
2023-04-16T06:40:00.315Z,85
2023-04-16T06:45:00.232Z,85
2023-04-16T06:50:00.274Z,84
2023-04-16T06:55:00.252Z,84
2023-04-16T07:00:00.305Z,84
2023-04-16T07:05:00.291Z,84
2023-04-16T07:10:00.315Z,84
2023-04-16T07:15:00.263Z,84
2023-04-16T07:20:00.252Z,84
2023-04-16T07:25:00.265Z,84
2023-04-16T07:30:00.293Z,84
2023-04-16T07:35:00.249Z,84
2023-04-16T07:40:00.255Z,84
2023-04-16T07:45:00.272Z,83
2023-04-16T07:50:00.258Z,83
2023-04-16T07:55:00.319Z,83
2023-04-16T08:00:00.275Z,83
2023-04-16T08:05:00.332Z,83
2023-04-16T08:10:00.305Z,83
2023-04-16T08:15:00.269Z,83
2023-04-16T08:20:00.281Z,83
2023-04-16T08:25:00.232Z,83
2023-04-16T08:30:00.231Z,83
2023-04-16T08:35:00.240Z,83
2023-04-16T08:40:00.256Z,83
2023-04-16T08:45:00.282Z,83
2023-04-16T08:50:00.241Z,83
2023-04-16T08:55:00.280Z,83
2023-04-16T09:00:00.264Z,83
2023-04-16T09:05:00.310Z,82
2023-04-16T09:10:00.294Z,82
2023-04-16T09:15:00.296Z,82
2023-04-16T09:20:00.271Z,82
2023-04-16T09:25:00.291Z,82
2023-04-16T09:30:00.274Z,82
2023-04-16T09:35:00.239Z,82
2023-04-16T09:40:00.297Z,82
2023-04-16T09:45:02.676Z,82
2023-04-16T09:50:00.307Z,82
2023-04-16T09:55:00.283Z,82
2023-04-16T10:00:00.304Z,81
2023-04-16T10:05:00.236Z,81
2023-04-16T10:10:00.234Z,81
2023-04-16T10:15:00.258Z,80
2023-04-16T10:20:00.302Z,80
2023-04-16T10:25:00.231Z,80
2023-04-16T10:30:00.261Z,80
2023-04-16T10:35:00.242Z,80
2023-04-16T10:40:00.307Z,80
2023-04-16T10:45:00.325Z,80
2023-04-16T10:50:00.231Z,79
2023-04-16T10:55:00.226Z,79
2023-04-16T11:00:00.266Z,78
2023-04-16T11:05:00.372Z,78
2023-04-16T11:10:00.400Z,78
2023-04-16T11:15:00.301Z,78
2023-04-16T11:20:00.356Z,77
2023-04-16T11:25:00.249Z,77
2023-04-16T11:30:00.770Z,77
2023-04-16T11:35:00.259Z,77
2023-04-16T11:40:00.357Z,76
2023-04-16T11:45:00.271Z,76
2023-04-16T11:50:00.205Z,76
2023-04-16T11:55:00.237Z,75
2023-04-16T12:00:02.278Z,75
2023-04-16T12:05:00.260Z,74
2023-04-16T12:10:00.279Z,74
2023-04-16T12:15:00.358Z,74
2023-04-16T12:20:00.250Z,74
2023-04-16T12:25:00.287Z,73
2023-04-16T12:30:00.268Z,72
2023-04-16T12:35:00.295Z,73
2023-04-16T12:40:00.268Z,72
2023-04-16T12:45:00.254Z,72
2023-04-16T12:50:00.311Z,72
2023-04-16T12:55:00.212Z,72
2023-04-16T13:00:00.280Z,72
2023-04-16T13:05:00.269Z,72
2023-04-16T13:10:00.225Z,72
2023-04-16T13:15:00.295Z,72
2023-04-16T13:20:00.206Z,72
2023-04-16T13:25:00.317Z,72
2023-04-16T13:30:00.288Z,72
2023-04-16T13:35:00.230Z,71
2023-04-16T13:40:00.268Z,71
2023-04-16T13:45:00.256Z,70
2023-04-16T13:50:00.311Z,71
2023-04-16T13:55:00.373Z,70
2023-04-16T14:00:00.260Z,70
2023-04-16T14:05:00.228Z,70
2023-04-16T14:10:00.267Z,70
2023-04-16T14:15:00.227Z,70
2023-04-16T14:20:00.269Z,69
2023-04-16T14:25:00.291Z,70
2023-04-16T14:30:00.239Z,69
2023-04-16T14:35:00.293Z,70
2023-04-16T14:40:00.251Z,69
2023-04-16T14:45:00.221Z,70
2023-04-16T14:50:00.234Z,70
2023-04-16T14:55:00.246Z,70
2023-04-16T15:00:00.303Z,69
2023-04-16T15:05:00.225Z,69
2023-04-16T15:10:00.231Z,69
2023-04-16T15:15:00.212Z,69
2023-04-16T15:20:00.222Z,69
2023-04-16T15:25:00.208Z,69
2023-04-16T15:30:00.306Z,69
2023-04-16T15:35:00.269Z,69
2023-04-16T15:40:00.216Z,69
2023-04-16T15:45:00.279Z,68
2023-04-16T15:50:00.337Z,67
2023-04-16T15:55:02.272Z,68
2023-04-16T16:00:07.104Z,68
2023-04-16T16:05:00.332Z,68
2023-04-16T16:10:00.453Z,68
2023-04-16T16:15:00.232Z,68
2023-04-16T16:20:00.278Z,68
2023-04-16T16:25:00.191Z,69
2023-04-16T16:30:00.302Z,68
2023-04-16T16:35:00.257Z,68
2023-04-16T16:40:00.301Z,68
2023-04-16T16:45:00.204Z,68
2023-04-16T16:50:02.698Z,68
2023-04-16T16:55:00.241Z,68
2023-04-16T17:00:00.306Z,68
2023-04-16T17:05:00.293Z,68
2023-04-16T17:10:02.569Z,68
2023-04-16T17:15:00.223Z,68
2023-04-16T17:20:00.319Z,68
2023-04-16T17:25:00.224Z,68
2023-04-16T17:30:00.285Z,68
2023-04-16T17:35:00.314Z,68
2023-04-16T17:40:00.257Z,69
2023-04-16T17:45:00.242Z,69
2023-04-16T17:50:00.252Z,69
2023-04-16T17:55:00.240Z,68
2023-04-16T18:00:00.223Z,68
2023-04-16T18:05:00.279Z,68
2023-04-16T18:10:00.267Z,69
2023-04-16T18:15:00.331Z,69
2023-04-16T18:20:00.266Z,69
2023-04-16T18:25:00.251Z,69
2023-04-16T18:30:00.279Z,69
2023-04-16T18:35:00.294Z,69
2023-04-16T18:40:00.241Z,69
2023-04-16T18:45:00.266Z,69
2023-04-16T18:50:00.300Z,70
2023-04-16T18:55:00.219Z,70
2023-04-16T19:00:00.288Z,70
2023-04-16T19:05:00.223Z,70
2023-04-16T19:10:00.188Z,70
2023-04-16T19:15:00.224Z,70
2023-04-16T19:20:00.217Z,70
2023-04-16T19:25:00.227Z,70
2023-04-16T19:30:00.278Z,70
2023-04-16T19:35:00.278Z,71
2023-04-16T19:40:00.267Z,71
2023-04-16T19:45:00.596Z,71
2023-04-16T19:50:00.253Z,71
2023-04-16T19:55:00.309Z,71
2023-04-16T20:00:00.394Z,72
2023-04-16T20:05:00.292Z,72
2023-04-16T20:10:00.208Z,72
2023-04-16T20:15:00.276Z,73
2023-04-16T20:20:00.286Z,73
2023-04-16T20:25:00.219Z,74
2023-04-16T20:30:00.210Z,75
2023-04-16T20:35:00.296Z,76
2023-04-16T20:40:00.236Z,76
2023-04-16T20:45:00.231Z,76
2023-04-16T20:50:00.181Z,77
2023-04-16T20:55:00.232Z,77
2023-04-16T21:00:00.275Z,78
2023-04-16T21:05:00.277Z,78
2023-04-16T21:10:00.240Z,78
2023-04-16T21:15:00.253Z,78
2023-04-16T21:20:00.270Z,79
2023-04-16T21:25:00.282Z,79
2023-04-16T21:30:00.293Z,79
2023-04-16T21:35:00.237Z,80
2023-04-16T21:40:00.306Z,80
2023-04-16T21:45:00.219Z,80
2023-04-16T21:50:00.263Z,80
2023-04-16T21:55:00.481Z,80
2023-04-16T22:00:00.298Z,81
2023-04-16T22:05:00.251Z,81
2023-04-16T22:10:00.300Z,81
2023-04-16T22:15:02.950Z,81
2023-04-16T22:20:00.269Z,81
2023-04-16T22:25:00.207Z,81
2023-04-16T22:30:00.327Z,81
2023-04-16T22:35:00.197Z,81
2023-04-16T22:40:00.274Z,81
2023-04-16T22:45:00.246Z,82
2023-04-16T22:50:00.184Z,82
2023-04-16T22:55:00.281Z,82
2023-04-16T23:00:00.305Z,83
2023-04-16T23:05:00.215Z,82
2023-04-16T23:10:00.243Z,82
2023-04-16T23:15:00.218Z,82
2023-04-16T23:20:00.250Z,82
2023-04-16T23:25:00.176Z,82
2023-04-16T23:30:00.330Z,82
2023-04-16T23:35:00.236Z,83
2023-04-16T23:40:00.175Z,83
2023-04-16T23:45:00.187Z,83
2023-04-16T23:50:00.245Z,83
2023-04-16T23:55:00.323Z,84
